sensor_id;sensor_type;location;lat;lon;timestamp;P1;durP1;ratioP1;P2;durP2;ratioP2
18893;SDS011;9579;49.488;8.226;2023-05-15T00:00:15;2.90;;;2.70;;
18893;SDS011;9579;49.488;8.226;2023-05-15T00:03:02;3.15;;;2.88;;
18893;SDS011;9579;49.488;8.226;2023-05-15T00:05:49;3.03;;;2.80;;
18893;SDS011;9579;49.488;8.226;2023-05-15T00:08:37;3.10;;;2.90;;
18893;SDS011;9579;49.488;8.226;2023-05-15T00:11:24;3.10;;;2.90;;
18893;SDS011;9579;49.488;8.226;2023-05-15T00:14:12;3.37;;;3.17;;
18893;SDS011;9579;49.488;8.226;2023-05-15T00:17:02;3.17;;;2.97;;
18893;SDS011;9579;49.488;8.226;2023-05-15T00:19:50;3.30;;;3.00;;
18893;SDS011;9579;49.488;8.226;2023-05-15T00:22:41;3.20;;;3.00;;
18893;SDS011;9579;49.488;8.226;2023-05-15T00:25:28;3.50;;;3.20;;
18893;SDS011;9579;49.488;8.226;2023-05-15T00:28:15;3.03;;;2.83;;
18893;SDS011;9579;49.488;8.226;2023-05-15T00:31:03;3.20;;;2.90;;
18893;SDS011;9579;49.488;8.226;2023-05-15T00:33:51;4.20;;;3.00;;
18893;SDS011;9579;49.488;8.226;2023-05-15T00:36:38;3.30;;;3.10;;
18893;SDS011;9579;49.488;8.226;2023-05-15T00:39:25;3.50;;;3.20;;
18893;SDS011;9579;49.488;8.226;2023-05-15T00:42:12;3.10;;;2.90;;
18893;SDS011;9579;49.488;8.226;2023-05-15T00:45:03;3.00;;;2.80;;
18893;SDS011;9579;49.488;8.226;2023-05-15T00:47:53;3.37;;;3.07;;
18893;SDS011;9579;49.488;8.226;2023-05-15T00:50:42;3.37;;;3.10;;
18893;SDS011;9579;49.488;8.226;2023-05-15T00:53:30;3.20;;;2.80;;
18893;SDS011;9579;49.488;8.226;2023-05-15T00:56:17;3.20;;;3.00;;
18893;SDS011;9579;49.488;8.226;2023-05-15T00:59:05;3.50;;;3.20;;
18893;SDS011;9579;49.488;8.226;2023-05-15T01:01:53;3.40;;;3.20;;
18893;SDS011;9579;49.488;8.226;2023-05-15T01:04:40;3.20;;;3.00;;
18893;SDS011;9579;49.488;8.226;2023-05-15T01:07:29;3.27;;;3.07;;
18893;SDS011;9579;49.488;8.226;2023-05-15T01:10:18;3.30;;;3.10;;
18893;SDS011;9579;49.488;8.226;2023-05-15T01:13:08;3.30;;;3.00;;
18893;SDS011;9579;49.488;8.226;2023-05-15T01:15:56;3.50;;;3.10;;
18893;SDS011;9579;49.488;8.226;2023-05-15T01:18:44;3.50;;;3.20;;
18893;SDS011;9579;49.488;8.226;2023-05-15T01:57:36;3.47;;;3.27;;
18893;SDS011;9579;49.488;8.226;2023-05-15T02:00:27;3.50;;;3.20;;
18893;SDS011;9579;49.488;8.226;2023-05-15T02:03:16;3.10;;;2.90;;
18893;SDS011;9579;49.488;8.226;2023-05-15T02:06:04;3.63;;;3.33;;
18893;SDS011;9579;49.488;8.226;2023-05-15T05:12:36;3.40;;;3.10;;
18893;SDS011;9579;49.488;8.226;2023-05-15T05:15:41;3.60;;;3.40;;
18893;SDS011;9579;49.488;8.226;2023-05-15T05:19:09;3.40;;;3.17;;
18893;SDS011;9579;49.488;8.226;2023-05-15T05:22:36;3.70;;;3.47;;
18893;SDS011;9579;49.488;8.226;2023-05-15T05:44:31;3.95;;;3.60;;
18893;SDS011;9579;49.488;8.226;2023-05-15T05:47:19;4.43;;;3.38;;
18893;SDS011;9579;49.488;8.226;2023-05-15T05:50:06;3.75;;;3.35;;
18893;SDS011;9579;49.488;8.226;2023-05-15T05:52:54;3.88;;;3.40;;
18893;SDS011;9579;49.488;8.226;2023-05-15T05:55:40;3.70;;;3.35;;
18893;SDS011;9579;49.488;8.226;2023-05-15T05:58:28;3.60;;;3.30;;
18893;SDS011;9579;49.488;8.226;2023-05-15T06:01:16;3.63;;;3.25;;
18893;SDS011;9579;49.488;8.226;2023-05-15T06:04:04;3.50;;;3.20;;
18893;SDS011;9579;49.488;8.226;2023-05-15T06:06:51;3.50;;;3.22;;
18893;SDS011;9579;49.488;8.226;2023-05-15T06:09:38;3.00;;;2.80;;
18893;SDS011;9579;49.488;8.226;2023-05-15T06:12:25;3.53;;;3.05;;
18893;SDS011;9579;49.488;8.226;2023-05-15T06:15:13;3.30;;;3.10;;
18893;SDS011;9579;49.488;8.226;2023-05-15T06:18:02;3.33;;;3.10;;
18893;SDS011;9579;49.488;8.226;2023-05-15T06:20:49;3.58;;;3.20;;
18893;SDS011;9579;49.488;8.226;2023-05-15T06:23:37;3.50;;;3.20;;
18893;SDS011;9579;49.488;8.226;2023-05-15T06:26:24;4.22;;;3.20;;
18893;SDS011;9579;49.488;8.226;2023-05-15T06:29:11;3.30;;;3.00;;
18893;SDS011;9579;49.488;8.226;2023-05-15T06:31:58;4.50;;;3.60;;
18893;SDS011;9579;49.488;8.226;2023-05-15T06:34:47;4.10;;;3.80;;
18893;SDS011;9579;49.488;8.226;2023-05-15T06:37:33;4.50;;;3.70;;
18893;SDS011;9579;49.488;8.226;2023-05-15T06:40:21;4.20;;;3.90;;
18893;SDS011;9579;49.488;8.226;2023-05-15T06:43:08;4.30;;;3.95;;
18893;SDS011;9579;49.488;8.226;2023-05-15T06:45:55;4.53;;;4.20;;
18893;SDS011;9579;49.488;8.226;2023-05-15T06:48:42;4.43;;;4.13;;
18893;SDS011;9579;49.488;8.226;2023-05-15T06:51:30;4.43;;;4.13;;
18893;SDS011;9579;49.488;8.226;2023-05-15T06:54:17;4.40;;;4.10;;
18893;SDS011;9579;49.488;8.226;2023-05-15T06:57:04;5.55;;;3.88;;
18893;SDS011;9579;49.488;8.226;2023-05-15T06:59:51;4.38;;;4.07;;
18893;SDS011;9579;49.488;8.226;2023-05-15T07:02:38;4.70;;;4.40;;
18893;SDS011;9579;49.488;8.226;2023-05-15T07:05:25;4.70;;;4.30;;
18893;SDS011;9579;49.488;8.226;2023-05-15T07:08:14;4.50;;;4.20;;
18893;SDS011;9579;49.488;8.226;2023-05-15T07:11:01;4.93;;;4.47;;
18893;SDS011;9579;49.488;8.226;2023-05-15T07:13:48;4.72;;;4.43;;
18893;SDS011;9579;49.488;8.226;2023-05-15T07:16:35;4.65;;;4.25;;
18893;SDS011;9579;49.488;8.226;2023-05-15T07:19:22;4.47;;;4.15;;
18893;SDS011;9579;49.488;8.226;2023-05-15T07:22:09;4.38;;;3.95;;
18893;SDS011;9579;49.488;8.226;2023-05-15T07:24:57;4.70;;;4.30;;
18893;SDS011;9579;49.488;8.226;2023-05-15T07:27:44;4.82;;;4.43;;
18893;SDS011;9579;49.488;8.226;2023-05-15T07:30:31;4.32;;;3.92;;
18893;SDS011;9579;49.488;8.226;2023-05-15T07:33:18;4.95;;;4.55;;
18893;SDS011;9579;49.488;8.226;2023-05-15T07:36:05;4.75;;;3.97;;
18893;SDS011;9579;49.488;8.226;2023-05-15T07:38:52;4.88;;;4.47;;
18893;SDS011;9579;49.488;8.226;2023-05-15T07:41:41;5.13;;;4.72;;
18893;SDS011;9579;49.488;8.226;2023-05-15T07:44:28;5.15;;;4.72;;
18893;SDS011;9579;49.488;8.226;2023-05-15T07:47:15;4.97;;;4.57;;
18893;SDS011;9579;49.488;8.226;2023-05-15T07:50:03;5.43;;;4.93;;
18893;SDS011;9579;49.488;8.226;2023-05-15T07:52:50;5.70;;;5.20;;
18893;SDS011;9579;49.488;8.226;2023-05-15T07:55:39;6.05;;;5.45;;
18893;SDS011;9579;49.488;8.226;2023-05-15T07:58:27;5.50;;;5.10;;
18893;SDS011;9579;49.488;8.226;2023-05-15T08:01:14;6.00;;;5.50;;
18893;SDS011;9579;49.488;8.226;2023-05-15T08:04:04;6.93;;;6.30;;
18893;SDS011;9579;49.488;8.226;2023-05-15T08:06:52;6.95;;;6.35;;
18893;SDS011;9579;49.488;8.226;2023-05-15T08:09:40;7.03;;;6.43;;
18893;SDS011;9579;49.488;8.226;2023-05-15T08:12:27;6.82;;;6.25;;
18893;SDS011;9579;49.488;8.226;2023-05-15T08:15:15;8.05;;;7.25;;
18893;SDS011;9579;49.488;8.226;2023-05-15T08:18:06;8.00;;;7.40;;
18893;SDS011;9579;49.488;8.226;2023-05-15T08:20:53;8.45;;;7.75;;
18893;SDS011;9579;49.488;8.226;2023-05-15T08:23:40;8.45;;;7.65;;
18893;SDS011;9579;49.488;8.226;2023-05-15T08:26:27;8.45;;;7.75;;
18893;SDS011;9579;49.488;8.226;2023-05-15T08:29:14;7.90;;;7.20;;
18893;SDS011;9579;49.488;8.226;2023-05-15T08:32:03;8.48;;;7.85;;
18893;SDS011;9579;49.488;8.226;2023-05-15T08:34:51;8.00;;;7.28;;
18893;SDS011;9579;49.488;8.226;2023-05-15T08:37:38;7.80;;;7.20;;
18893;SDS011;9579;49.488;8.226;2023-05-15T08:40:26;7.93;;;7.22;;
18893;SDS011;9579;49.488;8.226;2023-05-15T08:43:14;8.63;;;7.72;;
18893;SDS011;9579;49.488;8.226;2023-05-15T08:46:03;8.70;;;8.00;;
18893;SDS011;9579;49.488;8.226;2023-05-15T08:48:53;9.23;;;8.35;;
18893;SDS011;9579;49.488;8.226;2023-05-15T08:51:41;8.02;;;7.28;;
18893;SDS011;9579;49.488;8.226;2023-05-15T08:54:28;7.80;;;7.10;;
18893;SDS011;9579;49.488;8.226;2023-05-15T08:57:16;8.05;;;7.43;;
18893;SDS011;9579;49.488;8.226;2023-05-15T09:00:04;9.85;;;8.95;;
18893;SDS011;9579;49.488;8.226;2023-05-15T09:02:53;11.65;;;10.45;;
18893;SDS011;9579;49.488;8.226;2023-05-15T09:05:41;11.73;;;10.73;;
18893;SDS011;9579;49.488;8.226;2023-05-15T09:08:29;10.00;;;9.10;;
18893;SDS011;9579;49.488;8.226;2023-05-15T09:11:18;10.68;;;9.68;;
18893;SDS011;9579;49.488;8.226;2023-05-15T09:14:06;10.65;;;9.75;;
18893;SDS011;9579;49.488;8.226;2023-05-15T09:16:53;12.82;;;11.73;;
18893;SDS011;9579;49.488;8.226;2023-05-15T09:19:41;11.80;;;10.80;;
18893;SDS011;9579;49.488;8.226;2023-05-15T09:22:29;11.30;;;10.20;;
18893;SDS011;9579;49.488;8.226;2023-05-15T09:25:32;13.25;;;11.88;;
18893;SDS011;9579;49.488;8.226;2023-05-15T09:28:24;10.48;;;9.45;;
18893;SDS011;9579;49.488;8.226;2023-05-15T09:31:12;10.27;;;9.30;;
18893;SDS011;9579;49.488;8.226;2023-05-15T09:34:00;9.98;;;9.18;;
18893;SDS011;9579;49.488;8.226;2023-05-15T09:36:48;10.48;;;9.52;;
18893;SDS011;9579;49.488;8.226;2023-05-15T09:39:40;9.60;;;8.82;;
18893;SDS011;9579;49.488;8.226;2023-05-15T09:42:28;11.57;;;10.52;;
18893;SDS011;9579;49.488;8.226;2023-05-15T09:45:20;9.20;;;8.40;;
18893;SDS011;9579;49.488;8.226;2023-05-15T09:48:09;8.75;;;7.95;;
18893;SDS011;9579;49.488;8.226;2023-05-15T09:50:56;9.32;;;8.25;;
18893;SDS011;9579;49.488;8.226;2023-05-15T09:53:47;8.25;;;7.55;;
18893;SDS011;9579;49.488;8.226;2023-05-15T09:56:36;7.28;;;6.65;;
18893;SDS011;9579;49.488;8.226;2023-05-15T09:59:23;8.35;;;7.70;;
18893;SDS011;9579;49.488;8.226;2023-05-15T10:02:12;9.00;;;8.30;;
18893;SDS011;9579;49.488;8.226;2023-05-15T10:05:00;9.50;;;8.70;;
18893;SDS011;9579;49.488;8.226;2023-05-15T10:07:47;12.85;;;11.55;;
18893;SDS011;9579;49.488;8.226;2023-05-15T10:10:40;9.50;;;8.70;;
18893;SDS011;9579;49.488;8.226;2023-05-15T10:13:30;8.20;;;7.50;;
18893;SDS011;9579;49.488;8.226;2023-05-15T10:16:19;8.73;;;8.02;;
18893;SDS011;9579;49.488;8.226;2023-05-15T10:19:09;9.27;;;8.35;;
18893;SDS011;9579;49.488;8.226;2023-05-15T10:21:57;12.00;;;10.90;;
18893;SDS011;9579;49.488;8.226;2023-05-15T10:24:45;11.25;;;10.35;;
18893;SDS011;9579;49.488;8.226;2023-05-15T10:27:35;9.68;;;8.77;;
18893;SDS011;9579;49.488;8.226;2023-05-15T10:30:25;8.85;;;7.53;;
18893;SDS011;9579;49.488;8.226;2023-05-15T10:33:13;5.63;;;5.13;;
18893;SDS011;9579;49.488;8.226;2023-05-15T10:36:01;7.57;;;6.97;;
18893;SDS011;9579;49.488;8.226;2023-05-15T10:38:49;8.70;;;7.95;;
18893;SDS011;9579;49.488;8.226;2023-05-15T10:41:37;8.25;;;7.55;;
18893;SDS011;9579;49.488;8.226;2023-05-15T10:44:25;11.55;;;10.55;;
18893;SDS011;9579;49.488;8.226;2023-05-15T10:47:13;9.45;;;8.65;;
18893;SDS011;9579;49.488;8.226;2023-05-15T10:50:01;11.23;;;10.07;;
18893;SDS011;9579;49.488;8.226;2023-05-15T10:52:50;10.95;;;10.05;;
18893;SDS011;9579;49.488;8.226;2023-05-15T10:55:37;12.15;;;11.00;;
18893;SDS011;9579;49.488;8.226;2023-05-15T10:58:24;14.10;;;12.65;;
18893;SDS011;9579;49.488;8.226;2023-05-15T11:01:23;13.98;;;12.68;;
18893;SDS011;9579;49.488;8.226;2023-05-15T11:04:12;12.52;;;11.20;;
18893;SDS011;9579;49.488;8.226;2023-05-15T11:07:10;11.38;;;10.35;;
18893;SDS011;9579;49.488;8.226;2023-05-15T11:09:59;10.98;;;9.85;;
18893;SDS011;9579;49.488;8.226;2023-05-15T11:12:55;10.00;;;9.10;;
18893;SDS011;9579;49.488;8.226;2023-05-15T11:15:43;9.75;;;8.95;;
18893;SDS011;9579;49.488;8.226;2023-05-15T11:18:31;10.50;;;9.50;;
18893;SDS011;9579;49.488;8.226;2023-05-15T11:21:24;9.32;;;8.52;;
18893;SDS011;9579;49.488;8.226;2023-05-15T11:24:17;7.90;;;7.20;;
18893;SDS011;9579;49.488;8.226;2023-05-15T11:27:04;7.93;;;7.25;;
18893;SDS011;9579;49.488;8.226;2023-05-15T11:30:07;7.70;;;7.00;;
18893;SDS011;9579;49.488;8.226;2023-05-15T11:32:58;9.27;;;8.10;;
18893;SDS011;9579;49.488;8.226;2023-05-15T11:35:46;9.18;;;8.32;;
18893;SDS011;9579;49.488;8.226;2023-05-15T11:38:38;8.40;;;7.68;;
18893;SDS011;9579;49.488;8.226;2023-05-15T11:41:29;8.23;;;7.43;;
18893;SDS011;9579;49.488;8.226;2023-05-15T11:44:20;7.13;;;6.20;;
18893;SDS011;9579;49.488;8.226;2023-05-15T11:47:08;7.10;;;5.00;;
18893;SDS011;9579;49.488;8.226;2023-05-15T11:49:56;4.78;;;4.20;;
18893;SDS011;9579;49.488;8.226;2023-05-15T11:52:43;4.55;;;4.10;;
18893;SDS011;9579;49.488;8.226;2023-05-15T11:55:32;4.82;;;4.50;;
18893;SDS011;9579;49.488;8.226;2023-05-15T11:58:21;5.45;;;4.88;;
18893;SDS011;9579;49.488;8.226;2023-05-15T12:01:09;5.72;;;5.22;;
18893;SDS011;9579;49.488;8.226;2023-05-15T12:03:57;6.75;;;6.05;;
18893;SDS011;9579;49.488;8.226;2023-05-15T12:06:44;7.00;;;6.18;;
18893;SDS011;9579;49.488;8.226;2023-05-15T12:09:33;6.38;;;5.88;;
18893;SDS011;9579;49.488;8.226;2023-05-15T12:12:22;5.75;;;5.25;;
18893;SDS011;9579;49.488;8.226;2023-05-15T12:15:13;5.80;;;5.30;;
18893;SDS011;9579;49.488;8.226;2023-05-15T12:18:01;4.90;;;4.10;;
18893;SDS011;9579;49.488;8.226;2023-05-15T12:20:50;3.88;;;3.67;;
18893;SDS011;9579;49.488;8.226;2023-05-15T12:23:38;4.20;;;3.90;;
18893;SDS011;9579;49.488;8.226;2023-05-15T12:26:25;5.10;;;4.70;;
18893;SDS011;9579;49.488;8.226;2023-05-15T12:29:15;5.07;;;4.68;;
18893;SDS011;9579;49.488;8.226;2023-05-15T12:32:03;4.88;;;4.57;;
18893;SDS011;9579;49.488;8.226;2023-05-15T12:34:51;4.93;;;4.53;;
18893;SDS011;9579;49.488;8.226;2023-05-15T12:37:38;5.18;;;4.20;;
18893;SDS011;9579;49.488;8.226;2023-05-15T12:40:25;5.03;;;4.63;;
18893;SDS011;9579;49.488;8.226;2023-05-15T12:43:12;4.50;;;4.10;;
18893;SDS011;9579;49.488;8.226;2023-05-15T12:46:01;4.85;;;4.45;;
18893;SDS011;9579;49.488;8.226;2023-05-15T12:48:48;4.75;;;4.35;;
18893;SDS011;9579;49.488;8.226;2023-05-15T12:51:40;5.75;;;5.25;;
18893;SDS011;9579;49.488;8.226;2023-05-15T12:54:28;4.95;;;4.53;;
18893;SDS011;9579;49.488;8.226;2023-05-15T12:57:15;4.57;;;4.18;;
18893;SDS011;9579;49.488;8.226;2023-05-15T13:00:02;4.40;;;4.10;;
18893;SDS011;9579;49.488;8.226;2023-05-15T13:02:53;4.65;;;4.25;;
18893;SDS011;9579;49.488;8.226;2023-05-15T13:05:43;4.30;;;3.97;;
18893;SDS011;9579;49.488;8.226;2023-05-15T13:08:30;4.82;;;4.32;;
18893;SDS011;9579;49.488;8.226;2023-05-15T13:11:17;5.25;;;4.60;;
18893;SDS011;9579;49.488;8.226;2023-05-15T13:14:07;5.20;;;4.70;;
18893;SDS011;9579;49.488;8.226;2023-05-15T13:16:57;5.18;;;4.68;;
18893;SDS011;9579;49.488;8.226;2023-05-15T13:19:46;5.10;;;4.70;;
18893;SDS011;9579;49.488;8.226;2023-05-15T13:22:33;6.38;;;4.70;;
18893;SDS011;9579;49.488;8.226;2023-05-15T13:25:20;5.30;;;4.80;;
18893;SDS011;9579;49.488;8.226;2023-05-15T13:28:07;5.38;;;4.90;;
18893;SDS011;9579;49.488;8.226;2023-05-15T13:30:55;5.53;;;5.03;;
18893;SDS011;9579;49.488;8.226;2023-05-15T13:33:42;5.72;;;5.32;;
18893;SDS011;9579;49.488;8.226;2023-05-15T13:36:31;7.22;;;6.63;;
18893;SDS011;9579;49.488;8.226;2023-05-15T13:39:18;6.55;;;6.03;;
18893;SDS011;9579;49.488;8.226;2023-05-15T13:42:05;6.50;;;5.90;;
18893;SDS011;9579;49.488;8.226;2023-05-15T13:44:52;6.50;;;6.00;;
18893;SDS011;9579;49.488;8.226;2023-05-15T13:47:39;6.82;;;6.15;;
18893;SDS011;9579;49.488;8.226;2023-05-15T13:50:26;6.20;;;5.70;;
18893;SDS011;9579;49.488;8.226;2023-05-15T13:53:15;6.38;;;5.88;;
18893;SDS011;9579;49.488;8.226;2023-05-15T13:56:02;7.03;;;6.53;;
18893;SDS011;9579;49.488;8.226;2023-05-15T13:58:49;6.78;;;6.28;;
18893;SDS011;9579;49.488;8.226;2023-05-15T14:01:36;7.28;;;6.78;;
18893;SDS011;9579;49.488;8.226;2023-05-15T14:04:23;7.53;;;6.82;;
18893;SDS011;9579;49.488;8.226;2023-05-15T14:07:10;6.93;;;6.43;;
18893;SDS011;9579;49.488;8.226;2023-05-15T14:09:58;6.70;;;6.20;;
18893;SDS011;9579;49.488;8.226;2023-05-15T14:12:45;6.88;;;6.30;;
18893;SDS011;9579;49.488;8.226;2023-05-15T14:15:32;6.53;;;6.00;;
18893;SDS011;9579;49.488;8.226;2023-05-15T14:18:20;7.00;;;6.30;;
18893;SDS011;9579;49.488;8.226;2023-05-15T14:21:07;6.30;;;5.80;;
18893;SDS011;9579;49.488;8.226;2023-05-15T14:23:54;6.22;;;5.65;;
18893;SDS011;9579;49.488;8.226;2023-05-15T14:26:42;6.22;;;5.63;;
18893;SDS011;9579;49.488;8.226;2023-05-15T14:29:29;5.95;;;5.53;;
18893;SDS011;9579;49.488;8.226;2023-05-15T14:32:16;6.60;;;6.10;;
18893;SDS011;9579;49.488;8.226;2023-05-15T14:35:04;6.10;;;5.60;;
18893;SDS011;9579;49.488;8.226;2023-05-15T14:37:51;6.35;;;5.75;;
18893;SDS011;9579;49.488;8.226;2023-05-15T14:40:38;6.47;;;5.97;;
18893;SDS011;9579;49.488;8.226;2023-05-15T14:43:28;5.40;;;5.00;;
18893;SDS011;9579;49.488;8.226;2023-05-15T14:46:15;5.30;;;4.80;;
18893;SDS011;9579;49.488;8.226;2023-05-15T14:49:03;4.88;;;4.50;;
18893;SDS011;9579;49.488;8.226;2023-05-15T14:51:56;5.30;;;4.90;;
18893;SDS011;9579;49.488;8.226;2023-05-15T14:54:46;5.38;;;4.97;;
18893;SDS011;9579;49.488;8.226;2023-05-15T14:57:33;6.32;;;5.72;;
18893;SDS011;9579;49.488;8.226;2023-05-15T15:00:21;6.32;;;5.82;;
18893;SDS011;9579;49.488;8.226;2023-05-15T15:03:09;7.47;;;6.40;;
18893;SDS011;9579;49.488;8.226;2023-05-15T15:05:56;7.35;;;6.68;;
18893;SDS011;9579;49.488;8.226;2023-05-15T15:08:43;7.07;;;6.50;;
18893;SDS011;9579;49.488;8.226;2023-05-15T15:11:30;8.02;;;7.22;;
18893;SDS011;9579;49.488;8.226;2023-05-15T15:14:17;9.57;;;7.00;;
18893;SDS011;9579;49.488;8.226;2023-05-15T15:17:06;8.10;;;7.30;;
18893;SDS011;9579;49.488;8.226;2023-05-15T15:19:53;8.45;;;7.68;;
18893;SDS011;9579;49.488;8.226;2023-05-15T15:22:40;8.05;;;7.45;;
18893;SDS011;9579;49.488;8.226;2023-05-15T15:25:27;8.10;;;7.40;;
18893;SDS011;9579;49.488;8.226;2023-05-15T15:28:14;7.95;;;7.30;;
18893;SDS011;9579;49.488;8.226;2023-05-15T15:31:01;7.75;;;6.95;;
18893;SDS011;9579;49.488;8.226;2023-05-15T15:33:50;6.88;;;6.28;;
18893;SDS011;9579;49.488;8.226;2023-05-15T15:36:37;7.68;;;7.03;;
18893;SDS011;9579;49.488;8.226;2023-05-15T15:39:25;7.05;;;6.55;;
18893;SDS011;9579;49.488;8.226;2023-05-15T15:42:12;7.60;;;6.95;;
18893;SDS011;9579;49.488;8.226;2023-05-15T15:45:00;7.18;;;6.68;;
18893;SDS011;9579;49.488;8.226;2023-05-15T15:47:47;8.38;;;7.68;;
18893;SDS011;9579;49.488;8.226;2023-05-15T15:50:35;8.80;;;7.03;;
18893;SDS011;9579;49.488;8.226;2023-05-15T15:53:22;7.35;;;6.68;;
18893;SDS011;9579;49.488;8.226;2023-05-15T15:56:09;8.63;;;8.02;;
18893;SDS011;9579;49.488;8.226;2023-05-15T15:58:56;13.73;;;12.45;;
18893;SDS011;9579;49.488;8.226;2023-05-15T16:01:43;20.42;;;12.25;;
18893;SDS011;9579;49.488;8.226;2023-05-15T16:04:32;15.55;;;11.48;;
18893;SDS011;9579;49.488;8.226;2023-05-15T16:07:20;10.68;;;9.38;;
18893;SDS011;9579;49.488;8.226;2023-05-15T16:10:07;9.68;;;8.70;;
18893;SDS011;9579;49.488;8.226;2023-05-15T16:12:56;9.90;;;9.00;;
18893;SDS011;9579;49.488;8.226;2023-05-15T16:15:43;12.02;;;10.90;;
18893;SDS011;9579;49.488;8.226;2023-05-15T16:18:30;13.25;;;11.85;;
18893;SDS011;9579;49.488;8.226;2023-05-15T16:21:18;13.30;;;11.90;;
18893;SDS011;9579;49.488;8.226;2023-05-15T16:24:06;14.32;;;12.32;;
18893;SDS011;9579;49.488;8.226;2023-05-15T16:26:53;13.18;;;11.88;;
18893;SDS011;9579;49.488;8.226;2023-05-15T16:29:40;13.63;;;12.32;;
18893;SDS011;9579;49.488;8.226;2023-05-15T16:32:28;13.10;;;11.93;;
18893;SDS011;9579;49.488;8.226;2023-05-15T16:35:16;13.93;;;12.63;;
18893;SDS011;9579;49.488;8.226;2023-05-15T16:38:04;14.00;;;12.75;;
18893;SDS011;9579;49.488;8.226;2023-05-15T16:40:53;15.82;;;14.20;;
18893;SDS011;9579;49.488;8.226;2023-05-15T16:43:40;12.77;;;11.68;;
18893;SDS011;9579;49.488;8.226;2023-05-15T16:46:27;11.15;;;10.18;;
18893;SDS011;9579;49.488;8.226;2023-05-15T16:49:14;11.98;;;10.80;;
18893;SDS011;9579;49.488;8.226;2023-05-15T16:52:01;12.80;;;11.68;;
18893;SDS011;9579;49.488;8.226;2023-05-15T16:54:49;12.75;;;11.65;;
18893;SDS011;9579;49.488;8.226;2023-05-15T16:57:37;13.55;;;12.55;;
18893;SDS011;9579;49.488;8.226;2023-05-15T17:00:24;12.63;;;11.63;;
18893;SDS011;9579;49.488;8.226;2023-05-15T17:03:11;14.63;;;13.43;;
18893;SDS011;9579;49.488;8.226;2023-05-15T17:05:58;14.02;;;12.82;;
18893;SDS011;9579;49.488;8.226;2023-05-15T17:08:45;13.85;;;12.75;;
18893;SDS011;9579;49.488;8.226;2023-05-15T17:11:32;14.23;;;13.02;;
18893;SDS011;9579;49.488;8.226;2023-05-15T17:14:20;13.40;;;12.30;;
18893;SDS011;9579;49.488;8.226;2023-05-15T17:17:07;14.20;;;13.10;;
18893;SDS011;9579;49.488;8.226;2023-05-15T17:19:55;13.73;;;12.52;;
18893;SDS011;9579;49.488;8.226;2023-05-15T17:22:42;12.05;;;10.88;;
18893;SDS011;9579;49.488;8.226;2023-05-15T17:25:29;12.73;;;11.73;;
18893;SDS011;9579;49.488;8.226;2023-05-15T17:28:16;12.40;;;11.30;;
18893;SDS011;9579;49.488;8.226;2023-05-15T17:31:07;12.10;;;11.10;;
18893;SDS011;9579;49.488;8.226;2023-05-15T17:33:55;12.05;;;11.05;;
18893;SDS011;9579;49.488;8.226;2023-05-15T17:36:42;12.05;;;11.05;;
18893;SDS011;9579;49.488;8.226;2023-05-15T17:39:29;12.75;;;11.73;;
18893;SDS011;9579;49.488;8.226;2023-05-15T17:42:16;11.73;;;10.75;;
18893;SDS011;9579;49.488;8.226;2023-05-15T17:45:04;12.68;;;11.65;;
18893;SDS011;9579;49.488;8.226;2023-05-15T17:47:53;12.82;;;11.65;;
18893;SDS011;9579;49.488;8.226;2023-05-15T17:50:46;12.65;;;11.48;;
18893;SDS011;9579;49.488;8.226;2023-05-15T17:53:34;12.00;;;11.05;;
18893;SDS011;9579;49.488;8.226;2023-05-15T17:56:21;12.05;;;11.05;;
18893;SDS011;9579;49.488;8.226;2023-05-15T17:59:08;13.25;;;12.15;;
18893;SDS011;9579;49.488;8.226;2023-05-15T18:01:55;12.43;;;11.32;;
18893;SDS011;9579;49.488;8.226;2023-05-15T18:04:43;12.48;;;11.48;;
18893;SDS011;9579;49.488;8.226;2023-05-15T18:07:30;11.82;;;10.88;;
18893;SDS011;9579;49.488;8.226;2023-05-15T18:10:17;12.80;;;11.60;;
18893;SDS011;9579;49.488;8.226;2023-05-15T18:13:04;12.27;;;11.18;;
18893;SDS011;9579;49.488;8.226;2023-05-15T18:15:51;12.32;;;11.18;;
18893;SDS011;9579;49.488;8.226;2023-05-15T18:18:38;11.60;;;10.70;;
18893;SDS011;9579;49.488;8.226;2023-05-15T18:21:27;11.07;;;10.25;;
18893;SDS011;9579;49.488;8.226;2023-05-15T18:24:14;9.95;;;9.10;;
18893;SDS011;9579;49.488;8.226;2023-05-15T18:27:01;9.23;;;8.52;;
18893;SDS011;9579;49.488;8.226;2023-05-15T18:29:48;9.15;;;8.32;;
18893;SDS011;9579;49.488;8.226;2023-05-15T18:32:35;9.30;;;8.60;;
18893;SDS011;9579;49.488;8.226;2023-05-15T18:35:22;9.43;;;8.63;;
18893;SDS011;9579;49.488;8.226;2023-05-15T18:38:11;9.35;;;8.68;;
18893;SDS011;9579;49.488;8.226;2023-05-15T18:40:58;9.43;;;8.73;;
18893;SDS011;9579;49.488;8.226;2023-05-15T18:43:45;9.52;;;8.82;;
18893;SDS011;9579;49.488;8.226;2023-05-15T18:46:32;9.40;;;8.70;;
18893;SDS011;9579;49.488;8.226;2023-05-15T18:49:19;9.38;;;8.68;;
18893;SDS011;9579;49.488;8.226;2023-05-15T18:52:06;9.23;;;8.52;;
18893;SDS011;9579;49.488;8.226;2023-05-15T18:54:54;8.70;;;8.10;;
18893;SDS011;9579;49.488;8.226;2023-05-15T18:57:41;9.70;;;8.90;;
18893;SDS011;9579;49.488;8.226;2023-05-15T19:00:28;9.80;;;9.05;;
18893;SDS011;9579;49.488;8.226;2023-05-15T19:03:15;10.30;;;9.60;;
18893;SDS011;9579;49.488;8.226;2023-05-15T19:06:04;10.05;;;9.15;;
18893;SDS011;9579;49.488;8.226;2023-05-15T19:08:51;10.65;;;9.88;;
18893;SDS011;9579;49.488;8.226;2023-05-15T19:11:40;11.43;;;10.52;;
18893;SDS011;9579;49.488;8.226;2023-05-15T19:14:27;10.80;;;9.98;;
18893;SDS011;9579;49.488;8.226;2023-05-15T19:17:14;10.93;;;10.02;;
18893;SDS011;9579;49.488;8.226;2023-05-15T19:20:03;10.02;;;9.13;;
18893;SDS011;9579;49.488;8.226;2023-05-15T19:22:51;10.38;;;9.57;;
18893;SDS011;9579;49.488;8.226;2023-05-15T19:25:38;10.95;;;10.05;;
18893;SDS011;9579;49.488;8.226;2023-05-15T19:28:27;12.20;;;11.18;;
18893;SDS011;9579;49.488;8.226;2023-05-15T19:31:14;12.80;;;11.80;;
18893;SDS011;9579;49.488;8.226;2023-05-15T19:34:01;13.18;;;11.80;;
18893;SDS011;9579;49.488;8.226;2023-05-15T19:36:48;13.23;;;12.13;;
18893;SDS011;9579;49.488;8.226;2023-05-15T19:39:35;12.43;;;11.43;;
18893;SDS011;9579;49.488;8.226;2023-05-15T19:42:23;12.63;;;11.65;;
18893;SDS011;9579;49.488;8.226;2023-05-15T19:45:11;13.63;;;12.57;;
18893;SDS011;9579;49.488;8.226;2023-05-15T19:47:58;13.43;;;12.38;;
18893;SDS011;9579;49.488;8.226;2023-05-15T19:50:45;12.38;;;11.38;;
18893;SDS011;9579;49.488;8.226;2023-05-15T19:53:33;13.45;;;12.45;;
18893;SDS011;9579;49.488;8.226;2023-05-15T19:56:20;12.20;;;11.30;;
18893;SDS011;9579;49.488;8.226;2023-05-15T19:59:09;12.85;;;11.57;;
18893;SDS011;9579;49.488;8.226;2023-05-15T20:01:58;12.35;;;11.40;;
18893;SDS011;9579;49.488;8.226;2023-05-15T20:04:45;12.63;;;11.63;;
18893;SDS011;9579;49.488;8.226;2023-05-15T20:07:32;12.27;;;11.32;;
18893;SDS011;9579;49.488;8.226;2023-05-15T20:10:20;11.57;;;10.63;;
18893;SDS011;9579;49.488;8.226;2023-05-15T20:13:07;11.25;;;10.23;;
18893;SDS011;9579;49.488;8.226;2023-05-15T20:15:55;12.45;;;11.43;;
18893;SDS011;9579;49.488;8.226;2023-05-15T20:18:46;12.25;;;11.25;;
18893;SDS011;9579;49.488;8.226;2023-05-15T20:21:38;13.05;;;12.05;;
18893;SDS011;9579;49.488;8.226;2023-05-15T20:24:25;12.13;;;11.23;;
18893;SDS011;9579;49.488;8.226;2023-05-15T20:27:13;13.35;;;12.25;;
18893;SDS011;9579;49.488;8.226;2023-05-15T20:30:00;12.27;;;11.38;;
18893;SDS011;9579;49.488;8.226;2023-05-15T20:32:49;12.63;;;11.63;;
18893;SDS011;9579;49.488;8.226;2023-05-15T20:35:37;11.98;;;11.02;;
18893;SDS011;9579;49.488;8.226;2023-05-15T20:38:24;12.40;;;11.40;;
18893;SDS011;9579;49.488;8.226;2023-05-15T20:41:12;12.20;;;11.30;;
18893;SDS011;9579;49.488;8.226;2023-05-15T20:44:00;12.23;;;11.23;;
18893;SDS011;9579;49.488;8.226;2023-05-15T20:46:48;11.00;;;10.18;;
18893;SDS011;9579;49.488;8.226;2023-05-15T20:49:35;10.25;;;9.55;;
18893;SDS011;9579;49.488;8.226;2023-05-15T20:52:23;9.93;;;9.23;;
18893;SDS011;9579;49.488;8.226;2023-05-15T20:55:11;10.50;;;9.55;;
18893;SDS011;9579;49.488;8.226;2023-05-15T20:58:00;9.43;;;8.73;;